createdAt,value
2022-12-13T00:01:37.233Z,32.13
2022-12-13T00:06:39.359Z,30.88
2022-12-13T00:11:42.003Z,37.13
2022-12-13T00:16:48.798Z,33.08
2022-12-13T00:21:50.892Z,34.03
2022-12-13T00:26:55.289Z,33.40
2022-12-13T00:32:01.357Z,29.25
2022-12-13T00:37:03.634Z,29.70
2022-12-13T00:42:06.308Z,35.72
2022-12-13T00:47:08.350Z,30.20
2022-12-13T00:52:10.380Z,29.20
2022-12-13T00:57:12.582Z,30.80
2022-12-13T01:02:14.617Z,35.20
2022-12-13T01:07:16.881Z,31.20
2022-12-13T01:12:19.041Z,31.75
2022-12-13T01:17:21.120Z,35.88
2022-12-13T01:22:23.411Z,36.28
2022-12-13T01:27:26.531Z,36.85
2022-12-13T01:32:28.607Z,30.42
2022-12-13T01:37:30.956Z,34.08
2022-12-13T01:42:40.054Z,31.48
2022-12-13T01:47:51.723Z,30.85
2022-12-13T01:52:56.063Z,33.88
2022-12-13T01:58:04.498Z,29.80
2022-12-13T02:03:07.098Z,30.05
2022-12-13T02:08:13.493Z,30.55
2022-12-13T02:13:15.675Z,29.27
2022-12-13T02:18:32.406Z,29.92
2022-12-13T02:23:58.956Z,32.25
2022-12-13T02:29:32.903Z,32.92
2022-12-13T02:34:41.872Z,35.58
2022-12-13T02:40:27.247Z,33.33
2022-12-13T02:45:51.465Z,37.22
2022-12-13T02:50:53.733Z,33.40
2022-12-13T02:55:56.029Z,32.10
2022-12-13T03:01:28.928Z,30.77
2022-12-13T03:06:55.567Z,33.47
2022-12-13T03:12:25.417Z,32.30
2022-12-13T03:17:31.512Z,33.67
2022-12-13T03:22:34.646Z,38.85
2022-12-13T03:27:36.821Z,36.80
2022-12-13T03:32:38.822Z,35.53
2022-12-13T03:37:40.927Z,38.15
2022-12-13T03:42:42.979Z,39.65
2022-12-13T03:47:44.957Z,35.33
2022-12-13T03:52:47.620Z,34.70
2022-12-13T03:57:49.647Z,29.80
2022-12-13T04:02:52.926Z,38.95
2022-12-13T04:08:00.976Z,38.95
2022-12-13T04:13:21.698Z,37.38
2022-12-13T04:23:25.714Z,34.35
2022-12-13T04:28:27.735Z,34.72
2022-12-13T04:33:32.487Z,36.97
2022-12-13T04:38:34.812Z,33.33
2022-12-13T04:43:36.841Z,35.45
2022-12-13T04:48:39.130Z,33.58
2022-12-13T04:53:41.163Z,33.40
2022-12-13T04:58:43.490Z,32.72
2022-12-13T05:03:45.670Z,36.15
2022-12-13T05:08:48.058Z,37.33
2022-12-13T05:13:50.494Z,37.00
2022-12-13T05:18:52.636Z,32.40
2022-12-13T05:23:54.875Z,35.28
2022-12-13T05:28:57.690Z,35.20
2022-12-13T05:34:01.516Z,46.10
2022-12-13T05:39:03.894Z,38.17
2022-12-13T05:44:06.106Z,39.25
2022-12-13T05:49:08.148Z,35.10
2022-12-13T05:54:10.174Z,36.22
2022-12-13T05:59:12.207Z,35.97
2022-12-13T06:04:22.426Z,32.90
2022-12-13T06:09:25.297Z,41.30
2022-12-13T06:14:27.404Z,35.63
2022-12-13T06:19:29.992Z,35.17
2022-12-13T06:24:32.029Z,37.05
2022-12-13T06:29:34.201Z,37.42
2022-12-13T06:34:36.942Z,37.33
2022-12-13T06:39:39.126Z,32.35
2022-12-13T06:44:41.770Z,37.70
2022-12-13T06:49:44.703Z,41.40
2022-12-13T06:54:47.380Z,34.80
2022-12-13T06:59:49.423Z,43.47
2022-12-13T07:04:51.586Z,36.13
2022-12-13T07:09:53.719Z,41.55
2022-12-13T07:14:56.043Z,40.95
2022-12-13T07:19:58.104Z,34.60
2022-12-13T07:25:04.892Z,38.53
2022-12-13T07:30:07.357Z,40.85
2022-12-13T07:35:09.379Z,39.80
2022-12-13T07:40:12.046Z,43.13
2022-12-13T07:45:14.143Z,38.95
2022-12-13T07:50:24.354Z,39.67
2022-12-13T07:55:33.748Z,47.13
2022-12-13T08:00:45.683Z,43.90
2022-12-13T08:05:48.785Z,39.63
2022-12-13T08:10:51.133Z,43.65
2022-12-13T08:16:02.810Z,37.17
2022-12-13T08:21:23.938Z,38.25
2022-12-13T08:26:28.911Z,42.45
2022-12-13T08:31:33.960Z,40.60
2022-12-13T08:36:36.382Z,38.97
2022-12-13T08:41:39.448Z,52.00
2022-12-13T08:46:41.667Z,44.55
2022-12-13T08:51:43.877Z,48.55
2022-12-13T08:56:45.901Z,46.33
2022-12-13T09:01:47.973Z,47.92
2022-12-13T09:06:56.237Z,45.13
2022-12-13T09:12:11.202Z,49.33
2022-12-13T09:17:26.273Z,50.50
2022-12-13T09:22:33.122Z,54.22
2022-12-13T09:27:39.859Z,46.97
2022-12-13T09:32:43.518Z,45.03
2022-12-13T09:37:46.308Z,46.67
2022-12-13T09:43:00.117Z,49.30
2022-12-13T09:48:22.497Z,53.67
2022-12-13T09:53:25.239Z,49.13
2022-12-13T09:58:37.245Z,48.70
2022-12-13T10:03:43.363Z,49.20
2022-12-13T10:08:57.848Z,49.70
2022-12-13T10:14:16.985Z,47.90
2022-12-13T10:19:30.056Z,44.35
2022-12-13T10:24:49.711Z,52.85
2022-12-13T10:30:10.816Z,43.78
2022-12-13T10:35:23.232Z,47.75
2022-12-13T10:40:36.350Z,41.22
2022-12-13T10:45:38.558Z,51.42
2022-12-13T10:50:40.733Z,48.17
2022-12-13T10:55:42.986Z,48.50
2022-12-13T11:00:47.325Z,51.63
2022-12-13T11:06:02.771Z,48.20
2022-12-13T11:11:06.985Z,41.25
2022-12-13T11:16:29.858Z,56.70
2022-12-13T11:21:35.049Z,61.72
2022-12-13T11:26:39.603Z,43.05
2022-12-13T11:32:00.231Z,44.83
2022-12-13T11:37:22.954Z,40.90
2022-12-13T11:42:57.150Z,46.92
2022-12-13T11:48:11.191Z,48.78
2022-12-13T11:53:19.077Z,47.30
2022-12-13T12:04:07.008Z,43.53
2022-12-13T12:09:17.554Z,53.40
2022-12-13T12:14:36.724Z,47.93
2022-12-13T12:19:41.649Z,44.80
2022-12-13T12:25:21.516Z,49.40
2022-12-13T12:30:33.978Z,61.42
2022-12-13T12:35:46.495Z,58.92
2022-12-13T12:41:17.712Z,48.78
2022-12-13T12:47:09.118Z,47.83
2022-12-13T12:52:21.922Z,46.97
2022-12-13T12:57:39.430Z,45.50
2022-12-13T13:02:50.159Z,47.22
2022-12-13T13:07:59.116Z,51.50
2022-12-13T13:13:11.598Z,50.17
2022-12-13T13:18:44.737Z,47.83
2022-12-13T13:23:47.287Z,52.38
2022-12-13T13:28:49.765Z,46.25
2022-12-13T13:33:52.343Z,43.88
2022-12-13T13:39:01.688Z,47.75
2022-12-13T13:44:32.010Z,47.85
2022-12-13T13:49:34.076Z,44.55
2022-12-13T13:55:06.830Z,54.78
2022-12-13T14:00:14.923Z,62.03
2022-12-13T14:05:38.973Z,59.63
2022-12-13T14:11:18.187Z,59.22
2022-12-13T14:16:39.338Z,55.55
2022-12-13T14:22:05.662Z,47.33
2022-12-13T14:27:20.745Z,51.38
2022-12-13T14:32:27.644Z,54.78
2022-12-13T14:37:37.701Z,43.25
2022-12-13T14:42:41.709Z,46.83
2022-12-13T14:47:52.415Z,42.85
2022-12-13T14:52:56.070Z,40.08
2022-12-13T14:58:00.715Z,43.75
2022-12-13T15:03:04.403Z,41.50
2022-12-13T15:08:11.772Z,44.33
2022-12-13T15:13:29.841Z,38.90
2022-12-13T15:18:32.948Z,38.45
2022-12-13T15:23:49.137Z,41.42
2022-12-13T15:29:09.558Z,44.58
2022-12-13T15:34:28.951Z,44.92
2022-12-13T15:39:38.573Z,47.17
2022-12-13T15:44:48.121Z,41.88
2022-12-13T15:50:02.481Z,47.65
2022-12-13T15:55:08.183Z,39.85
2022-12-13T16:00:20.479Z,35.75
2022-12-13T16:05:35.570Z,40.10
2022-12-13T16:10:37.658Z,40.53
2022-12-13T16:15:50.429Z,39.03
2022-12-13T16:20:52.411Z,39.97
2022-12-13T16:25:54.753Z,40.75
2022-12-13T16:31:14.995Z,36.25
2022-12-13T16:36:17.592Z,40.50
2022-12-13T16:41:21.818Z,36.83
2022-12-13T16:47:11.690Z,45.15
2022-12-13T16:51:48.757Z,41.17
2022-12-13T16:56:52.824Z,42.00
2022-12-13T17:01:55.298Z,39.75
2022-12-13T17:06:57.455Z,39.58
2022-12-13T17:11:59.787Z,40.60
2022-12-13T17:17:01.925Z,40.22
2022-12-13T17:22:03.990Z,41.67
2022-12-13T17:27:06.239Z,40.70
2022-12-13T17:32:08.249Z,43.30
2022-12-13T17:37:10.870Z,41.85
2022-12-13T17:42:13.188Z,43.42
2022-12-13T17:47:15.310Z,41.08
2022-12-13T17:52:17.623Z,42.47
2022-12-13T17:57:19.793Z,40.97
2022-12-13T18:02:23.006Z,38.45
2022-12-13T18:07:25.201Z,40.50
2022-12-13T18:12:27.281Z,37.75
2022-12-13T18:18:01.641Z,62.25
2022-12-13T18:22:59.677Z,46.10
2022-12-13T18:28:01.920Z,37.53
2022-12-13T18:33:05.708Z,53.55
2022-12-13T18:38:08.002Z,39.20
2022-12-13T18:43:10.244Z,42.67
2022-12-13T18:48:12.692Z,38.55
2022-12-13T18:53:14.770Z,34.25
2022-12-13T18:58:16.850Z,33.38
2022-12-13T19:03:19.064Z,35.28
2022-12-13T19:08:26.266Z,39.53
2022-12-13T19:13:30.024Z,34.53
2022-12-13T19:18:32.218Z,31.20
2022-12-13T19:23:34.900Z,36.90
2022-12-13T19:28:38.184Z,34.90
2022-12-13T19:34:15.102Z,37.88
2022-12-13T19:39:17.234Z,31.27
2022-12-13T19:44:19.534Z,37.33
2022-12-13T19:49:21.605Z,33.22
2022-12-13T19:54:25.921Z,37.15
2022-12-13T19:59:28.052Z,33.42
2022-12-13T20:04:30.432Z,30.80
2022-12-13T20:09:32.975Z,31.85
2022-12-13T20:14:35.171Z,40.40
2022-12-13T20:19:37.227Z,41.20
2022-12-13T20:24:39.515Z,33.00
2022-12-13T20:29:42.159Z,34.20
2022-12-13T20:34:54.703Z,38.30
2022-12-13T20:39:59.799Z,35.90
2022-12-13T20:45:02.487Z,34.85
2022-12-13T20:50:05.454Z,34.75
2022-12-13T20:55:07.895Z,32.35
2022-12-13T21:00:10.646Z,35.17
2022-12-13T21:05:19.102Z,36.58
2022-12-13T21:10:22.762Z,32.55
2022-12-13T21:15:24.986Z,33.42
2022-12-13T21:20:27.088Z,33.72
2022-12-13T21:25:29.662Z,39.22
2022-12-13T21:30:31.766Z,32.10
2022-12-13T21:35:33.893Z,33.53
2022-12-13T21:40:35.931Z,33.20
2022-12-13T21:45:38.241Z,35.67
2022-12-13T21:50:40.329Z,32.75
2022-12-13T21:55:43.885Z,39.85
2022-12-13T22:00:50.461Z,36.42
2022-12-13T22:05:52.587Z,29.08
2022-12-13T22:11:19.298Z,32.53
2022-12-13T22:16:23.171Z,32.35
2022-12-13T22:21:25.290Z,29.25
2022-12-13T22:26:27.480Z,32.92
2022-12-13T22:31:30.000Z,28.67
2022-12-13T22:36:32.366Z,29.40
2022-12-13T22:41:34.602Z,30.10
2022-12-13T22:46:36.610Z,29.88
2022-12-13T22:51:39.394Z,32.35
2022-12-13T22:56:41.519Z,29.48
2022-12-13T23:01:47.060Z,25.63
2022-12-13T23:06:50.165Z,33.13
2022-12-13T23:12:10.500Z,24.20
2022-12-13T23:17:12.589Z,26.75
2022-12-13T23:22:15.485Z,27.00
2022-12-13T23:27:19.870Z,29.33
2022-12-13T23:32:21.940Z,26.38
2022-12-13T23:37:23.978Z,26.00
2022-12-13T23:42:29.527Z,28.55
2022-12-13T23:47:31.518Z,25.15
2022-12-13T23:52:33.619Z,26.88
2022-12-13T23:57:35.606Z,25.67
